sensor_id;sensor_type;location;lat;lon;timestamp;P1;durP1;ratioP1;P2;durP2;ratioP2
25391;SDS011;13329;48.402;11.718;2022-09-01T00:00:12;19.08;;;10.95;;
25391;SDS011;13329;48.402;11.718;2022-09-01T00:02:38;20.33;;;11.07;;
25391;SDS011;13329;48.402;11.718;2022-09-01T00:05:04;20.90;;;11.20;;
25391;SDS011;13329;48.402;11.718;2022-09-01T00:07:31;20.73;;;11.30;;
25391;SDS011;13329;48.402;11.718;2022-09-01T00:09:58;20.25;;;11.40;;
25391;SDS011;13329;48.402;11.718;2022-09-01T00:12:24;19.80;;;11.00;;
25391;SDS011;13329;48.402;11.718;2022-09-01T00:14:49;18.55;;;10.75;;
25391;SDS011;13329;48.402;11.718;2022-09-01T00:17:15;23.15;;;11.38;;
25391;SDS011;13329;48.402;11.718;2022-09-01T00:19:40;21.60;;;12.00;;
25391;SDS011;13329;48.402;11.718;2022-09-01T00:22:05;18.27;;;11.27;;
25391;SDS011;13329;48.402;11.718;2022-09-01T00:24:31;24.38;;;12.02;;
25391;SDS011;13329;48.402;11.718;2022-09-01T00:26:56;18.70;;;11.00;;
25391;SDS011;13329;48.402;11.718;2022-09-01T00:29:22;24.30;;;12.13;;
25391;SDS011;13329;48.402;11.718;2022-09-01T00:31:48;19.80;;;11.30;;
25391;SDS011;13329;48.402;11.718;2022-09-01T00:34:13;23.50;;;12.38;;
25391;SDS011;13329;48.402;11.718;2022-09-01T00:36:39;23.83;;;13.05;;
25391;SDS011;13329;48.402;11.718;2022-09-01T00:39:04;21.80;;;12.10;;
25391;SDS011;13329;48.402;11.718;2022-09-01T00:41:30;22.30;;;12.13;;
25391;SDS011;13329;48.402;11.718;2022-09-01T00:43:57;23.15;;;11.73;;
25391;SDS011;13329;48.402;11.718;2022-09-01T00:46:28;21.38;;;11.20;;
25391;SDS011;13329;48.402;11.718;2022-09-01T00:51:24;22.65;;;12.32;;
25391;SDS011;13329;48.402;11.718;2022-09-01T00:53:50;22.70;;;12.98;;
25391;SDS011;13329;48.402;11.718;2022-09-01T00:56:16;21.25;;;12.25;;
25391;SDS011;13329;48.402;11.718;2022-09-01T00:58:42;21.48;;;12.30;;
25391;SDS011;13329;48.402;11.718;2022-09-01T01:01:07;22.47;;;11.87;;
25391;SDS011;13329;48.402;11.718;2022-09-01T01:03:34;21.50;;;12.07;;
25391;SDS011;13329;48.402;11.718;2022-09-01T01:06:00;20.63;;;11.80;;
25391;SDS011;13329;48.402;11.718;2022-09-01T01:08:28;25.30;;;12.98;;
25391;SDS011;13329;48.402;11.718;2022-09-01T01:10:58;22.25;;;12.10;;
25391;SDS011;13329;48.402;11.718;2022-09-01T01:13:23;22.65;;;12.15;;
25391;SDS011;13329;48.402;11.718;2022-09-01T01:15:49;23.48;;;12.27;;
25391;SDS011;13329;48.402;11.718;2022-09-01T01:18:15;25.40;;;13.53;;
25391;SDS011;13329;48.402;11.718;2022-09-01T01:20:40;24.00;;;12.15;;
25391;SDS011;13329;48.402;11.718;2022-09-01T01:23:43;25.35;;;12.88;;
25391;SDS011;13329;48.402;11.718;2022-09-01T01:26:10;19.15;;;12.02;;
25391;SDS011;13329;48.402;11.718;2022-09-01T01:28:36;21.13;;;12.57;;
25391;SDS011;13329;48.402;11.718;2022-09-01T01:31:03;25.33;;;12.95;;
25391;SDS011;13329;48.402;11.718;2022-09-01T01:33:37;21.55;;;12.23;;
25391;SDS011;13329;48.402;11.718;2022-09-01T01:36:05;23.40;;;11.40;;
25391;SDS011;13329;48.402;11.718;2022-09-01T01:38:31;23.27;;;12.23;;
25391;SDS011;13329;48.402;11.718;2022-09-01T01:40:59;29.00;;;13.30;;
25391;SDS011;13329;48.402;11.718;2022-09-01T01:43:25;23.70;;;13.18;;
25391;SDS011;13329;48.402;11.718;2022-09-01T01:45:52;24.60;;;12.93;;
25391;SDS011;13329;48.402;11.718;2022-09-01T01:48:18;23.17;;;12.77;;
25391;SDS011;13329;48.402;11.718;2022-09-01T01:50:48;24.48;;;13.50;;
25391;SDS011;13329;48.402;11.718;2022-09-01T01:53:13;25.60;;;13.02;;
25391;SDS011;13329;48.402;11.718;2022-09-01T01:55:41;23.92;;;12.68;;
25391;SDS011;13329;48.402;11.718;2022-09-01T01:58:07;23.80;;;12.75;;
25391;SDS011;13329;48.402;11.718;2022-09-01T02:00:35;24.52;;;13.43;;
25391;SDS011;13329;48.402;11.718;2022-09-01T02:03:01;27.23;;;13.60;;
25391;SDS011;13329;48.402;11.718;2022-09-01T02:05:28;29.77;;;14.00;;
25391;SDS011;13329;48.402;11.718;2022-09-01T02:07:54;25.77;;;13.45;;
25391;SDS011;13329;48.402;11.718;2022-09-01T02:10:23;25.65;;;12.35;;
25391;SDS011;13329;48.402;11.718;2022-09-01T02:12:48;26.60;;;12.93;;
25391;SDS011;13329;48.402;11.718;2022-09-01T02:15:13;25.52;;;14.13;;
25391;SDS011;13329;48.402;11.718;2022-09-01T02:17:39;25.10;;;12.88;;
25391;SDS011;13329;48.402;11.718;2022-09-01T02:20:07;24.30;;;13.25;;
25391;SDS011;13329;48.402;11.718;2022-09-01T02:22:32;25.52;;;12.85;;
25391;SDS011;13329;48.402;11.718;2022-09-01T02:24:57;24.50;;;12.63;;
25391;SDS011;13329;48.402;11.718;2022-09-01T02:27:24;25.17;;;12.63;;
25391;SDS011;13329;48.402;11.718;2022-09-01T02:29:53;26.73;;;13.65;;
25391;SDS011;13329;48.402;11.718;2022-09-01T02:32:19;24.77;;;13.27;;
25391;SDS011;13329;48.402;11.718;2022-09-01T02:34:45;25.02;;;13.23;;
25391;SDS011;13329;48.402;11.718;2022-09-01T02:37:17;25.40;;;12.55;;
25391;SDS011;13329;48.402;11.718;2022-09-01T02:39:44;25.48;;;12.60;;
25391;SDS011;13329;48.402;11.718;2022-09-01T02:42:10;28.08;;;13.63;;
25391;SDS011;13329;48.402;11.718;2022-09-01T02:44:37;24.00;;;12.95;;
25391;SDS011;13329;48.402;11.718;2022-09-01T02:47:04;26.90;;;13.00;;
25391;SDS011;13329;48.402;11.718;2022-09-01T02:49:32;25.25;;;13.13;;
25391;SDS011;13329;48.402;11.718;2022-09-01T02:51:59;26.33;;;14.20;;
25391;SDS011;13329;48.402;11.718;2022-09-01T02:54:27;21.65;;;12.75;;
25391;SDS011;13329;48.402;11.718;2022-09-01T02:56:53;28.10;;;13.68;;
25391;SDS011;13329;48.402;11.718;2022-09-01T02:59:19;22.73;;;12.32;;
25391;SDS011;13329;48.402;11.718;2022-09-01T03:01:46;27.45;;;13.50;;
25391;SDS011;13329;48.402;11.718;2022-09-01T03:04:11;23.65;;;12.68;;
25391;SDS011;13329;48.402;11.718;2022-09-01T03:06:37;24.30;;;13.15;;
25391;SDS011;13329;48.402;11.718;2022-09-01T03:09:04;24.55;;;13.50;;
25391;SDS011;13329;48.402;11.718;2022-09-01T03:11:30;25.70;;;12.82;;
25391;SDS011;13329;48.402;11.718;2022-09-01T03:13:56;22.20;;;12.95;;
25391;SDS011;13329;48.402;11.718;2022-09-01T03:16:21;25.50;;;13.57;;
25391;SDS011;13329;48.402;11.718;2022-09-01T03:18:46;25.33;;;13.80;;
25391;SDS011;13329;48.402;11.718;2022-09-01T03:21:13;22.27;;;13.30;;
25391;SDS011;13329;48.402;11.718;2022-09-01T03:23:41;25.65;;;14.20;;
25391;SDS011;13329;48.402;11.718;2022-09-01T03:26:07;25.83;;;13.77;;
25391;SDS011;13329;48.402;11.718;2022-09-01T03:28:33;25.95;;;14.32;;
25391;SDS011;13329;48.402;11.718;2022-09-01T03:30:58;24.70;;;13.47;;
25391;SDS011;13329;48.402;11.718;2022-09-01T03:33:25;26.48;;;14.50;;
25391;SDS011;13329;48.402;11.718;2022-09-01T03:35:50;27.67;;;14.65;;
25391;SDS011;13329;48.402;11.718;2022-09-01T03:38:15;25.53;;;13.33;;
25391;SDS011;13329;48.402;11.718;2022-09-01T03:40:48;25.67;;;13.63;;
25391;SDS011;13329;48.402;11.718;2022-09-01T03:43:14;25.77;;;13.13;;
25391;SDS011;13329;48.402;11.718;2022-09-01T03:45:41;24.20;;;13.18;;
25391;SDS011;13329;48.402;11.718;2022-09-01T03:48:07;24.92;;;13.00;;
25391;SDS011;13329;48.402;11.718;2022-09-01T03:50:34;25.45;;;12.68;;
25391;SDS011;13329;48.402;11.718;2022-09-01T03:53:00;24.75;;;12.80;;
25391;SDS011;13329;48.402;11.718;2022-09-01T03:55:27;25.58;;;13.20;;
25391;SDS011;13329;48.402;11.718;2022-09-01T03:57:54;23.48;;;12.52;;
25391;SDS011;13329;48.402;11.718;2022-09-01T04:00:20;22.55;;;12.18;;
25391;SDS011;13329;48.402;11.718;2022-09-01T04:02:51;27.70;;;13.02;;
25391;SDS011;13329;48.402;11.718;2022-09-01T04:05:19;23.88;;;12.02;;
25391;SDS011;13329;48.402;11.718;2022-09-01T04:07:49;22.73;;;12.27;;
25391;SDS011;13329;48.402;11.718;2022-09-01T04:10:15;24.80;;;13.10;;
25391;SDS011;13329;48.402;11.718;2022-09-01T04:12:41;21.05;;;11.77;;
25391;SDS011;13329;48.402;11.718;2022-09-01T04:15:06;26.33;;;13.20;;
25391;SDS011;13329;48.402;11.718;2022-09-01T04:17:32;23.13;;;12.10;;
25391;SDS011;13329;48.402;11.718;2022-09-01T04:20:16;25.85;;;12.77;;
25391;SDS011;13329;48.402;11.718;2022-09-01T04:22:44;24.30;;;12.43;;
25391;SDS011;13329;48.402;11.718;2022-09-01T04:25:11;22.65;;;12.27;;
25391;SDS011;13329;48.402;11.718;2022-09-01T04:27:37;25.83;;;13.50;;
25391;SDS011;13329;48.402;11.718;2022-09-01T04:30:04;24.75;;;13.60;;
25391;SDS011;13329;48.402;11.718;2022-09-01T04:32:31;23.08;;;12.43;;
25391;SDS011;13329;48.402;11.718;2022-09-01T04:34:56;23.92;;;12.73;;
25391;SDS011;13329;48.402;11.718;2022-09-01T04:37:21;24.88;;;12.52;;
25391;SDS011;13329;48.402;11.718;2022-09-01T04:39:48;29.95;;;13.77;;
25391;SDS011;13329;48.402;11.718;2022-09-01T04:42:16;27.83;;;14.25;;
25391;SDS011;13329;48.402;11.718;2022-09-01T04:44:42;24.98;;;12.98;;
25391;SDS011;13329;48.402;11.718;2022-09-01T04:47:10;24.67;;;13.30;;
25391;SDS011;13329;48.402;11.718;2022-09-01T04:49:41;26.00;;;13.48;;
25391;SDS011;13329;48.402;11.718;2022-09-01T04:52:08;23.67;;;12.98;;
25391;SDS011;13329;48.402;11.718;2022-09-01T04:54:33;22.83;;;13.17;;
25391;SDS011;13329;48.402;11.718;2022-09-01T04:57:04;22.75;;;12.73;;
25391;SDS011;13329;48.402;11.718;2022-09-01T04:59:31;24.85;;;13.23;;
25391;SDS011;13329;48.402;11.718;2022-09-01T05:01:56;26.40;;;14.10;;
25391;SDS011;13329;48.402;11.718;2022-09-01T05:04:26;27.95;;;14.02;;
25391;SDS011;13329;48.402;11.718;2022-09-01T05:06:52;27.27;;;13.32;;
25391;SDS011;13329;48.402;11.718;2022-09-01T05:09:23;26.25;;;13.25;;
25391;SDS011;13329;48.402;11.718;2022-09-01T05:11:49;27.63;;;14.13;;
25391;SDS011;13329;48.402;11.718;2022-09-01T05:14:14;29.58;;;14.65;;
25391;SDS011;13329;48.402;11.718;2022-09-01T05:16:43;28.60;;;13.70;;
25391;SDS011;13329;48.402;11.718;2022-09-01T05:19:09;27.77;;;13.70;;
25391;SDS011;13329;48.402;11.718;2022-09-01T05:21:38;26.77;;;13.52;;
25391;SDS011;13329;48.402;11.718;2022-09-01T05:24:04;28.05;;;14.45;;
25391;SDS011;13329;48.402;11.718;2022-09-01T05:26:29;24.77;;;13.25;;
25391;SDS011;13329;48.402;11.718;2022-09-01T05:28:57;23.92;;;12.77;;
25391;SDS011;13329;48.402;11.718;2022-09-01T05:31:22;23.73;;;12.20;;
25391;SDS011;13329;48.402;11.718;2022-09-01T05:33:48;24.85;;;12.57;;
25391;SDS011;13329;48.402;11.718;2022-09-01T05:36:14;22.20;;;11.50;;
25391;SDS011;13329;48.402;11.718;2022-09-01T05:38:41;22.85;;;13.10;;
25391;SDS011;13329;48.402;11.718;2022-09-01T05:41:08;24.05;;;12.73;;
25391;SDS011;13329;48.402;11.718;2022-09-01T05:43:34;23.75;;;12.88;;
25391;SDS011;13329;48.402;11.718;2022-09-01T05:46:00;22.20;;;10.95;;
25391;SDS011;13329;48.402;11.718;2022-09-01T05:48:27;19.48;;;11.80;;
25391;SDS011;13329;48.402;11.718;2022-09-01T05:50:55;22.13;;;12.32;;
25391;SDS011;13329;48.402;11.718;2022-09-01T05:53:23;23.60;;;12.30;;
25391;SDS011;13329;48.402;11.718;2022-09-01T05:55:49;21.95;;;12.18;;
25391;SDS011;13329;48.402;11.718;2022-09-01T05:58:16;20.38;;;11.02;;
25391;SDS011;13329;48.402;11.718;2022-09-01T06:00:42;20.43;;;12.27;;
25391;SDS011;13329;48.402;11.718;2022-09-01T06:03:09;21.55;;;12.15;;
25391;SDS011;13329;48.402;11.718;2022-09-01T06:05:34;22.00;;;11.75;;
25391;SDS011;13329;48.402;11.718;2022-09-01T06:08:04;22.98;;;11.57;;
25391;SDS011;13329;48.402;11.718;2022-09-01T06:10:30;20.92;;;11.20;;
25391;SDS011;13329;48.402;11.718;2022-09-01T06:12:56;20.85;;;11.65;;
25391;SDS011;13329;48.402;11.718;2022-09-01T06:15:21;21.17;;;10.75;;
25391;SDS011;13329;48.402;11.718;2022-09-01T06:17:46;18.80;;;10.90;;
25391;SDS011;13329;48.402;11.718;2022-09-01T06:20:12;22.07;;;12.17;;
25391;SDS011;13329;48.402;11.718;2022-09-01T06:22:37;21.80;;;11.73;;
25391;SDS011;13329;48.402;11.718;2022-09-01T06:25:03;19.75;;;11.68;;
25391;SDS011;13329;48.402;11.718;2022-09-01T06:27:31;19.25;;;10.98;;
25391;SDS011;13329;48.402;11.718;2022-09-01T06:29:57;17.08;;;10.45;;
25391;SDS011;13329;48.402;11.718;2022-09-01T06:32:22;19.30;;;10.70;;
25391;SDS011;13329;48.402;11.718;2022-09-01T06:34:49;18.20;;;10.73;;
25391;SDS011;13329;48.402;11.718;2022-09-01T06:37:15;18.73;;;9.55;;
25391;SDS011;13329;48.402;11.718;2022-09-01T06:39:41;19.02;;;10.95;;
25391;SDS011;13329;48.402;11.718;2022-09-01T06:42:07;18.85;;;11.05;;
25391;SDS011;13329;48.402;11.718;2022-09-01T06:44:35;17.88;;;9.23;;
25391;SDS011;13329;48.402;11.718;2022-09-01T06:47:00;18.33;;;10.07;;
25391;SDS011;13329;48.402;11.718;2022-09-01T06:49:25;14.18;;;8.75;;
25391;SDS011;13329;48.402;11.718;2022-09-01T06:52:00;16.80;;;9.40;;
25391;SDS011;13329;48.402;11.718;2022-09-01T06:54:27;17.35;;;9.60;;
25391;SDS011;13329;48.402;11.718;2022-09-01T06:56:54;12.45;;;8.48;;
25391;SDS011;13329;48.402;11.718;2022-09-01T06:59:20;14.27;;;9.40;;
25391;SDS011;13329;48.402;11.718;2022-09-01T07:01:45;16.52;;;9.30;;
25391;SDS011;13329;48.402;11.718;2022-09-01T07:04:12;12.98;;;8.55;;
25391;SDS011;13329;48.402;11.718;2022-09-01T07:06:40;14.48;;;8.85;;
25391;SDS011;13329;48.402;11.718;2022-09-01T07:09:05;16.98;;;9.02;;
25391;SDS011;13329;48.402;11.718;2022-09-01T07:11:31;16.48;;;9.52;;
25391;SDS011;13329;48.402;11.718;2022-09-01T07:13:58;14.50;;;8.85;;
25391;SDS011;13329;48.402;11.718;2022-09-01T07:16:26;14.02;;;8.38;;
25391;SDS011;13329;48.402;11.718;2022-09-01T07:18:53;17.88;;;8.85;;
25391;SDS011;13329;48.402;11.718;2022-09-01T07:21:20;12.70;;;8.77;;
25391;SDS011;13329;48.402;11.718;2022-09-01T07:23:45;15.07;;;8.68;;
25391;SDS011;13329;48.402;11.718;2022-09-01T07:26:11;14.27;;;8.10;;
25391;SDS011;13329;48.402;11.718;2022-09-01T07:28:38;12.73;;;7.38;;
25391;SDS011;13329;48.402;11.718;2022-09-01T07:31:04;17.97;;;8.53;;
25391;SDS011;13329;48.402;11.718;2022-09-01T07:33:29;12.70;;;7.93;;
25391;SDS011;13329;48.402;11.718;2022-09-01T07:35:56;13.07;;;7.72;;
25391;SDS011;13329;48.402;11.718;2022-09-01T07:38:22;12.38;;;7.40;;
25391;SDS011;13329;48.402;11.718;2022-09-01T07:40:47;13.18;;;7.70;;
25391;SDS011;13329;48.402;11.718;2022-09-01T07:43:15;10.55;;;7.53;;
25391;SDS011;13329;48.402;11.718;2022-09-01T07:45:42;10.65;;;6.78;;
25391;SDS011;13329;48.402;11.718;2022-09-01T07:48:08;10.02;;;6.93;;
25391;SDS011;13329;48.402;11.718;2022-09-01T07:50:40;9.10;;;5.80;;
25391;SDS011;13329;48.402;11.718;2022-09-01T07:53:07;11.05;;;6.65;;
25391;SDS011;13329;48.402;11.718;2022-09-01T07:55:32;12.57;;;6.57;;
25391;SDS011;13329;48.402;11.718;2022-09-01T07:57:58;9.80;;;6.45;;
25391;SDS011;13329;48.402;11.718;2022-09-01T08:00:24;8.40;;;6.10;;
25391;SDS011;13329;48.402;11.718;2022-09-01T08:02:49;13.47;;;6.80;;
25391;SDS011;13329;48.402;11.718;2022-09-01T08:05:16;9.95;;;5.85;;
25391;SDS011;13329;48.402;11.718;2022-09-01T08:07:44;10.45;;;6.72;;
25391;SDS011;13329;48.402;11.718;2022-09-01T08:10:12;9.30;;;6.22;;
25391;SDS011;13329;48.402;11.718;2022-09-01T08:12:38;10.07;;;6.67;;
25391;SDS011;13329;48.402;11.718;2022-09-01T08:15:04;10.98;;;6.35;;
25391;SDS011;13329;48.402;11.718;2022-09-01T08:17:29;9.80;;;6.55;;
25391;SDS011;13329;48.402;11.718;2022-09-01T08:19:54;9.50;;;6.00;;
25391;SDS011;13329;48.402;11.718;2022-09-01T08:22:20;10.53;;;6.57;;
25391;SDS011;13329;48.402;11.718;2022-09-01T08:24:48;9.18;;;5.90;;
25391;SDS011;13329;48.402;11.718;2022-09-01T08:27:13;9.10;;;5.93;;
25391;SDS011;13329;48.402;11.718;2022-09-01T08:29:38;11.23;;;5.93;;
25391;SDS011;13329;48.402;11.718;2022-09-01T08:32:03;8.93;;;5.68;;
25391;SDS011;13329;48.402;11.718;2022-09-01T08:34:30;9.50;;;5.40;;
25391;SDS011;13329;48.402;11.718;2022-09-01T08:36:56;8.50;;;5.40;;
25391;SDS011;13329;48.402;11.718;2022-09-01T08:39:21;7.27;;;4.80;;
25391;SDS011;13329;48.402;11.718;2022-09-01T08:47:04;8.98;;;5.30;;
25391;SDS011;13329;48.402;11.718;2022-09-01T08:49:31;11.30;;;5.78;;
25391;SDS011;13329;48.402;11.718;2022-09-01T08:57:18;10.80;;;5.75;;
25391;SDS011;13329;48.402;11.718;2022-09-01T08:59:44;10.10;;;5.20;;
25391;SDS011;13329;48.402;11.718;2022-09-01T09:09:39;9.27;;;6.13;;
25391;SDS011;13329;48.402;11.718;2022-09-01T09:12:54;7.43;;;5.80;;
25391;SDS011;13329;48.402;11.718;2022-09-01T09:15:12;10.88;;;6.72;;
25391;SDS011;13329;48.402;11.718;2022-09-01T09:17:41;12.15;;;7.28;;
25391;SDS011;13329;48.402;11.718;2022-09-01T09:20:07;8.60;;;5.90;;
25391;SDS011;13329;48.402;11.718;2022-09-01T09:22:32;10.68;;;5.57;;
25391;SDS011;13329;48.402;11.718;2022-09-01T09:25:02;11.57;;;6.85;;
25391;SDS011;13329;48.402;11.718;2022-09-01T09:27:32;7.78;;;5.15;;
25391;SDS011;13329;48.402;11.718;2022-09-01T09:30:03;6.40;;;4.30;;
25391;SDS011;13329;48.402;11.718;2022-09-01T09:37:53;5.97;;;4.40;;
25391;SDS011;13329;48.402;11.718;2022-09-01T09:40:22;5.72;;;4.00;;
25391;SDS011;13329;48.402;11.718;2022-09-01T09:45:24;6.60;;;3.85;;
25391;SDS011;13329;48.402;11.718;2022-09-01T09:47:49;5.53;;;3.28;;
25391;SDS011;13329;48.402;11.718;2022-09-01T09:50:20;4.57;;;2.65;;
25391;SDS011;13329;48.402;11.718;2022-09-01T09:52:47;5.00;;;2.75;;
25391;SDS011;13329;48.402;11.718;2022-09-01T09:57:47;3.85;;;2.53;;
25391;SDS011;13329;48.402;11.718;2022-09-01T10:00:18;3.42;;;2.50;;
25391;SDS011;13329;48.402;11.718;2022-09-01T10:02:44;2.83;;;2.30;;
25391;SDS011;13329;48.402;11.718;2022-09-01T10:07:50;3.05;;;1.95;;
25391;SDS011;13329;48.402;11.718;2022-09-01T10:10:27;3.05;;;2.00;;
25391;SDS011;13329;48.402;11.718;2022-09-01T10:12:52;2.70;;;2.20;;
25391;SDS011;13329;48.402;11.718;2022-09-01T10:15:18;2.75;;;1.88;;
25391;SDS011;13329;48.402;11.718;2022-09-01T10:17:44;2.42;;;1.83;;
25391;SDS011;13329;48.402;11.718;2022-09-01T10:20:16;3.20;;;2.15;;
25391;SDS011;13329;48.402;11.718;2022-09-01T10:22:42;3.05;;;1.95;;
25391;SDS011;13329;48.402;11.718;2022-09-01T10:25:08;2.78;;;2.20;;
25391;SDS011;13329;48.402;11.718;2022-09-01T10:27:36;2.92;;;1.73;;
25391;SDS011;13329;48.402;11.718;2022-09-01T10:30:07;3.05;;;1.80;;
25391;SDS011;13329;48.402;11.718;2022-09-01T10:32:42;3.60;;;1.80;;
25391;SDS011;13329;48.402;11.718;2022-09-01T10:37:33;1.77;;;1.63;;
25391;SDS011;13329;48.402;11.718;2022-09-01T10:40:15;2.20;;;1.80;;
25391;SDS011;13329;48.402;11.718;2022-09-01T10:42:41;3.22;;;2.10;;
25391;SDS011;13329;48.402;11.718;2022-09-01T10:45:14;3.05;;;1.95;;
25391;SDS011;13329;48.402;11.718;2022-09-01T10:47:42;2.10;;;1.73;;
25391;SDS011;13329;48.402;11.718;2022-09-01T10:50:28;3.05;;;1.90;;
25391;SDS011;13329;48.402;11.718;2022-09-01T10:52:55;3.17;;;1.90;;
25391;SDS011;13329;48.402;11.718;2022-09-01T10:58:29;4.13;;;1.83;;
25391;SDS011;13329;48.402;11.718;2022-09-01T11:08:20;1.70;;;1.50;;
25391;SDS011;13329;48.402;11.718;2022-09-01T11:11:29;2.20;;;1.70;;
25391;SDS011;13329;48.402;11.718;2022-09-01T11:13:35;4.10;;;1.92;;
25391;SDS011;13329;48.402;11.718;2022-09-01T11:18:45;3.33;;;1.88;;
25391;SDS011;13329;48.402;11.718;2022-09-01T11:21:25;1.98;;;1.73;;
25391;SDS011;13329;48.402;11.718;2022-09-01T11:24:17;2.78;;;2.15;;
25391;SDS011;13329;48.402;11.718;2022-09-01T11:26:43;3.25;;;2.08;;
25391;SDS011;13329;48.402;11.718;2022-09-01T11:29:45;3.20;;;2.03;;
25391;SDS011;13329;48.402;11.718;2022-09-01T11:31:54;4.32;;;2.15;;
25391;SDS011;13329;48.402;11.718;2022-09-01T11:34:20;2.42;;;1.73;;
25391;SDS011;13329;48.402;11.718;2022-09-01T11:36:55;2.08;;;1.65;;
25391;SDS011;13329;48.402;11.718;2022-09-01T11:41:54;3.58;;;1.85;;
25391;SDS011;13329;48.402;11.718;2022-09-01T11:44:25;1.67;;;1.48;;
25391;SDS011;13329;48.402;11.718;2022-09-01T11:46:51;3.85;;;1.90;;
25391;SDS011;13329;48.402;11.718;2022-09-01T11:49:25;1.75;;;1.42;;
25391;SDS011;13329;48.402;11.718;2022-09-01T11:51:51;1.50;;;1.08;;
25391;SDS011;13329;48.402;11.718;2022-09-01T11:54:16;2.40;;;1.43;;
25391;SDS011;13329;48.402;11.718;2022-09-01T11:56:41;2.83;;;1.57;;
25391;SDS011;13329;48.402;11.718;2022-09-01T11:59:06;1.90;;;1.23;;
25391;SDS011;13329;48.402;11.718;2022-09-01T12:01:33;3.42;;;1.60;;
25391;SDS011;13329;48.402;11.718;2022-09-01T12:04:16;2.20;;;1.55;;
25391;SDS011;13329;48.402;11.718;2022-09-01T12:06:49;1.17;;;1.02;;
25391;SDS011;13329;48.402;11.718;2022-09-01T12:09:15;1.88;;;1.50;;
25391;SDS011;13329;48.402;11.718;2022-09-01T12:11:40;2.33;;;1.77;;
25391;SDS011;13329;48.402;11.718;2022-09-01T12:14:09;1.77;;;1.50;;
25391;SDS011;13329;48.402;11.718;2022-09-01T12:16:35;1.70;;;1.25;;
25391;SDS011;13329;48.402;11.718;2022-09-01T12:19:02;2.85;;;1.52;;
25391;SDS011;13329;48.402;11.718;2022-09-01T12:21:29;1.75;;;1.48;;
25391;SDS011;13329;48.402;11.718;2022-09-01T12:29:03;3.72;;;1.42;;
25391;SDS011;13329;48.402;11.718;2022-09-01T12:31:28;2.72;;;1.40;;
25391;SDS011;13329;48.402;11.718;2022-09-01T12:33:54;2.70;;;1.50;;
25391;SDS011;13329;48.402;11.718;2022-09-01T12:36:24;1.85;;;1.30;;
25391;SDS011;13329;48.402;11.718;2022-09-01T12:38:50;1.38;;;1.27;;
25391;SDS011;13329;48.402;11.718;2022-09-01T12:41:23;1.85;;;1.40;;
25391;SDS011;13329;48.402;11.718;2022-09-01T12:43:48;1.92;;;1.45;;
25391;SDS011;13329;48.402;11.718;2022-09-01T12:46:37;1.70;;;1.33;;
25391;SDS011;13329;48.402;11.718;2022-09-01T12:49:22;2.67;;;1.38;;
25391;SDS011;13329;48.402;11.718;2022-09-01T12:51:45;2.10;;;1.25;;
25391;SDS011;13329;48.402;11.718;2022-09-01T12:54:14;1.58;;;1.20;;
25391;SDS011;13329;48.402;11.718;2022-09-01T12:56:48;1.48;;;1.10;;
25391;SDS011;13329;48.402;11.718;2022-09-01T12:59:19;1.88;;;1.40;;
25391;SDS011;13329;48.402;11.718;2022-09-01T13:01:45;1.63;;;1.20;;
25391;SDS011;13329;48.402;11.718;2022-09-01T13:04:12;1.67;;;1.27;;
25391;SDS011;13329;48.402;11.718;2022-09-01T13:06:37;2.63;;;1.35;;
25391;SDS011;13329;48.402;11.718;2022-09-01T13:09:03;1.58;;;1.08;;
25391;SDS011;13329;48.402;11.718;2022-09-01T13:11:28;1.40;;;1.10;;
25391;SDS011;13329;48.402;11.718;2022-09-01T13:13:53;1.30;;;1.20;;
25391;SDS011;13329;48.402;11.718;2022-09-01T13:16:18;4.10;;;1.40;;
25391;SDS011;13329;48.402;11.718;2022-09-01T13:18:43;2.87;;;1.30;;
25391;SDS011;13329;48.402;11.718;2022-09-01T13:21:09;2.67;;;1.07;;
25391;SDS011;13329;48.402;11.718;2022-09-01T13:23:34;2.53;;;1.47;;
25391;SDS011;13329;48.402;11.718;2022-09-01T13:25:59;1.40;;;1.07;;
25391;SDS011;13329;48.402;11.718;2022-09-01T13:28:24;4.20;;;1.60;;
25391;SDS011;13329;48.402;11.718;2022-09-01T13:30:55;2.30;;;1.30;;
25391;SDS011;13329;48.402;11.718;2022-09-01T13:33:21;4.15;;;1.08;;
25391;SDS011;13329;48.402;11.718;2022-09-01T13:35:47;1.30;;;1.13;;
25391;SDS011;13329;48.402;11.718;2022-09-01T13:38:12;2.03;;;1.17;;
25391;SDS011;13329;48.402;11.718;2022-09-01T13:40:40;2.15;;;1.25;;
25391;SDS011;13329;48.402;11.718;2022-09-01T13:43:05;1.73;;;1.10;;
25391;SDS011;13329;48.402;11.718;2022-09-01T13:45:30;2.30;;;1.00;;
25391;SDS011;13329;48.402;11.718;2022-09-01T13:47:56;1.27;;;1.10;;
25391;SDS011;13329;48.402;11.718;2022-09-01T13:50:21;2.85;;;1.23;;
25391;SDS011;13329;48.402;11.718;2022-09-01T13:52:50;1.52;;;0.90;;
25391;SDS011;13329;48.402;11.718;2022-09-01T13:55:20;1.45;;;1.05;;
25391;SDS011;13329;48.402;11.718;2022-09-01T13:57:46;2.08;;;1.30;;
25391;SDS011;13329;48.402;11.718;2022-09-01T14:00:13;1.83;;;1.05;;
25391;SDS011;13329;48.402;11.718;2022-09-01T14:02:40;1.23;;;1.05;;
25391;SDS011;13329;48.402;11.718;2022-09-01T14:05:07;3.22;;;1.08;;
25391;SDS011;13329;48.402;11.718;2022-09-01T14:07:32;1.88;;;1.10;;
25391;SDS011;13329;48.402;11.718;2022-09-01T14:09:57;2.90;;;1.30;;
25391;SDS011;13329;48.402;11.718;2022-09-01T14:12:23;0.82;;;0.80;;
25391;SDS011;13329;48.402;11.718;2022-09-01T14:14:48;1.27;;;1.00;;
25391;SDS011;13329;48.402;11.718;2022-09-01T14:17:13;1.98;;;1.02;;
25391;SDS011;13329;48.402;11.718;2022-09-01T14:19:38;1.35;;;0.98;;
25391;SDS011;13329;48.402;11.718;2022-09-01T14:22:04;1.58;;;1.00;;
25391;SDS011;13329;48.402;11.718;2022-09-01T14:24:30;2.55;;;1.27;;
25391;SDS011;13329;48.402;11.718;2022-09-01T14:26:55;2.00;;;1.00;;
25391;SDS011;13329;48.402;11.718;2022-09-01T14:29:20;1.40;;;1.07;;
25391;SDS011;13329;48.402;11.718;2022-09-01T14:31:45;1.88;;;1.00;;
25391;SDS011;13329;48.402;11.718;2022-09-01T14:34:10;1.50;;;0.87;;
25391;SDS011;13329;48.402;11.718;2022-09-01T14:36:36;2.10;;;1.13;;
25391;SDS011;13329;48.402;11.718;2022-09-01T14:39:02;5.60;;;1.23;;
25391;SDS011;13329;48.402;11.718;2022-09-01T14:41:27;1.42;;;1.10;;
25391;SDS011;13329;48.402;11.718;2022-09-01T14:43:54;4.03;;;1.20;;
25391;SDS011;13329;48.402;11.718;2022-09-01T14:46:21;1.23;;;0.90;;
25391;SDS011;13329;48.402;11.718;2022-09-01T14:48:47;2.47;;;1.15;;
25391;SDS011;13329;48.402;11.718;2022-09-01T14:51:20;2.33;;;0.90;;
25391;SDS011;13329;48.402;11.718;2022-09-01T14:53:46;1.90;;;0.90;;
25391;SDS011;13329;48.402;11.718;2022-09-01T14:56:11;1.27;;;1.00;;
25391;SDS011;13329;48.402;11.718;2022-09-01T14:58:37;1.30;;;0.75;;
25391;SDS011;13329;48.402;11.718;2022-09-01T15:01:04;1.95;;;1.10;;
25391;SDS011;13329;48.402;11.718;2022-09-01T15:03:30;1.08;;;0.90;;
25391;SDS011;13329;48.402;11.718;2022-09-01T15:05:55;1.98;;;1.08;;
25391;SDS011;13329;48.402;11.718;2022-09-01T15:08:20;1.80;;;1.10;;
25391;SDS011;13329;48.402;11.718;2022-09-01T15:10:46;1.58;;;1.10;;
25391;SDS011;13329;48.402;11.718;2022-09-01T15:13:11;1.13;;;1.03;;
25391;SDS011;13329;48.402;11.718;2022-09-01T15:15:37;3.88;;;1.23;;
25391;SDS011;13329;48.402;11.718;2022-09-01T15:18:03;2.67;;;1.48;;